sensor_id;sensor_type;location;lat;lon;timestamp;P1;durP1;ratioP1;P2;durP2;ratioP2
53843;SDS011;39744;53.314;5.710;2023-08-06T00:00:07;22.23;;;13.48;;
53843;SDS011;39744;53.314;5.710;2023-08-06T00:02:33;25.05;;;13.93;;
53843;SDS011;39744;53.314;5.710;2023-08-06T00:04:59;29.05;;;15.90;;
53843;SDS011;39744;53.314;5.710;2023-08-06T00:07:25;36.20;;;17.42;;
53843;SDS011;39744;53.314;5.710;2023-08-06T00:09:52;49.63;;;19.13;;
53843;SDS011;39744;53.314;5.710;2023-08-06T00:12:18;27.67;;;15.38;;
53843;SDS011;39744;53.314;5.710;2023-08-06T00:14:44;34.35;;;17.05;;
53843;SDS011;39744;53.314;5.710;2023-08-06T00:17:10;53.67;;;21.17;;
53843;SDS011;39744;53.314;5.710;2023-08-06T00:19:36;55.33;;;22.38;;
53843;SDS011;39744;53.314;5.710;2023-08-06T00:22:02;49.72;;;21.58;;
53843;SDS011;39744;53.314;5.710;2023-08-06T00:24:29;40.85;;;19.85;;
53843;SDS011;39744;53.314;5.710;2023-08-06T00:26:55;46.35;;;19.73;;
53843;SDS011;39744;53.314;5.710;2023-08-06T00:29:21;39.17;;;18.10;;
53843;SDS011;39744;53.314;5.710;2023-08-06T00:31:47;26.10;;;15.45;;
53843;SDS011;39744;53.314;5.710;2023-08-06T00:34:14;35.30;;;18.10;;
53843;SDS011;39744;53.314;5.710;2023-08-06T00:36:40;46.20;;;19.50;;
53843;SDS011;39744;53.314;5.710;2023-08-06T00:39:06;37.60;;;16.70;;
53843;SDS011;39744;53.314;5.710;2023-08-06T00:41:32;32.72;;;15.35;;
53843;SDS011;39744;53.314;5.710;2023-08-06T00:43:58;35.03;;;17.20;;
53843;SDS011;39744;53.314;5.710;2023-08-06T00:46:24;49.95;;;20.75;;
53843;SDS011;39744;53.314;5.710;2023-08-06T00:48:50;31.17;;;16.95;;
53843;SDS011;39744;53.314;5.710;2023-08-06T00:51:16;49.05;;;20.27;;
53843;SDS011;39744;53.314;5.710;2023-08-06T00:53:42;32.72;;;17.20;;
53843;SDS011;39744;53.314;5.710;2023-08-06T00:56:09;46.65;;;20.17;;
53843;SDS011;39744;53.314;5.710;2023-08-06T00:58:35;56.47;;;21.48;;
53843;SDS011;39744;53.314;5.710;2023-08-06T01:01:02;30.02;;;17.58;;
53843;SDS011;39744;53.314;5.710;2023-08-06T01:03:28;44.47;;;19.00;;
53843;SDS011;39744;53.314;5.710;2023-08-06T01:05:54;47.70;;;20.05;;
53843;SDS011;39744;53.314;5.710;2023-08-06T01:16:00;43.33;;;20.00;;
53843;SDS011;39744;53.314;5.710;2023-08-06T01:18:27;81.75;;;26.45;;
53843;SDS011;39744;53.314;5.710;2023-08-06T01:20:53;59.75;;;23.70;;
53843;SDS011;39744;53.314;5.710;2023-08-06T01:23:19;34.45;;;19.88;;
53843;SDS011;39744;53.314;5.710;2023-08-06T01:25:48;37.88;;;20.42;;
53843;SDS011;39744;53.314;5.710;2023-08-06T01:31:04;37.50;;;18.83;;
53843;SDS011;39744;53.314;5.710;2023-08-06T01:33:35;43.63;;;21.02;;
53843;SDS011;39744;53.314;5.710;2023-08-06T01:36:03;40.53;;;20.85;;
53843;SDS011;39744;53.314;5.710;2023-08-06T01:38:29;36.97;;;19.85;;
53843;SDS011;39744;53.314;5.710;2023-08-06T01:40:55;32.17;;;18.60;;
53843;SDS011;39744;53.314;5.710;2023-08-06T01:43:22;41.88;;;18.98;;
53843;SDS011;39744;53.314;5.710;2023-08-06T01:45:48;37.65;;;19.00;;
53843;SDS011;39744;53.314;5.710;2023-08-06T01:48:14;35.83;;;19.25;;
53843;SDS011;39744;53.314;5.710;2023-08-06T01:50:40;46.00;;;19.98;;
53843;SDS011;39744;53.314;5.710;2023-08-06T01:53:06;34.30;;;18.40;;
53843;SDS011;39744;53.314;5.710;2023-08-06T01:55:32;34.85;;;18.73;;
53843;SDS011;39744;53.314;5.710;2023-08-06T01:57:58;33.05;;;19.10;;
53843;SDS011;39744;53.314;5.710;2023-08-06T02:00:24;32.88;;;19.02;;
53843;SDS011;39744;53.314;5.710;2023-08-06T02:02:50;34.00;;;18.50;;
53843;SDS011;39744;53.314;5.710;2023-08-06T02:05:16;28.55;;;18.55;;
53843;SDS011;39744;53.314;5.710;2023-08-06T02:07:43;40.25;;;19.13;;
53843;SDS011;39744;53.314;5.710;2023-08-06T02:10:09;34.67;;;19.13;;
53843;SDS011;39744;53.314;5.710;2023-08-06T02:12:35;38.80;;;18.85;;
53843;SDS011;39744;53.314;5.710;2023-08-06T02:15:01;33.70;;;19.13;;
53843;SDS011;39744;53.314;5.710;2023-08-06T02:17:27;30.38;;;18.33;;
53843;SDS011;39744;53.314;5.710;2023-08-06T02:19:53;33.40;;;19.20;;
53843;SDS011;39744;53.314;5.710;2023-08-06T02:22:20;48.47;;;20.65;;
53843;SDS011;39744;53.314;5.710;2023-08-06T02:24:46;35.40;;;18.88;;
53843;SDS011;39744;53.314;5.710;2023-08-06T02:27:12;33.65;;;20.27;;
53843;SDS011;39744;53.314;5.710;2023-08-06T02:29:39;28.80;;;17.10;;
53843;SDS011;39744;53.314;5.710;2023-08-06T02:32:06;29.63;;;17.48;;
53843;SDS011;39744;53.314;5.710;2023-08-06T02:34:32;36.83;;;17.83;;
53843;SDS011;39744;53.314;5.710;2023-08-06T02:36:58;31.15;;;17.75;;
53843;SDS011;39744;53.314;5.710;2023-08-06T02:39:24;28.27;;;16.02;;
53843;SDS011;39744;53.314;5.710;2023-08-06T02:41:50;25.95;;;15.98;;
53843;SDS011;39744;53.314;5.710;2023-08-06T02:44:16;28.50;;;16.70;;
53843;SDS011;39744;53.314;5.710;2023-08-06T02:46:44;37.92;;;19.20;;
53843;SDS011;39744;53.314;5.710;2023-08-06T02:49:10;26.95;;;16.45;;
53843;SDS011;39744;53.314;5.710;2023-08-06T02:51:36;37.05;;;17.52;;
53843;SDS011;39744;53.314;5.710;2023-08-06T02:54:02;31.85;;;17.63;;
53843;SDS011;39744;53.314;5.710;2023-08-06T02:56:28;32.25;;;16.70;;
53843;SDS011;39744;53.314;5.710;2023-08-06T02:58:54;33.78;;;18.27;;
53843;SDS011;39744;53.314;5.710;2023-08-06T03:01:20;48.03;;;19.90;;
53843;SDS011;39744;53.314;5.710;2023-08-06T03:03:48;39.78;;;20.65;;
53843;SDS011;39744;53.314;5.710;2023-08-06T03:06:14;33.63;;;17.63;;
53843;SDS011;39744;53.314;5.710;2023-08-06T03:08:40;34.70;;;19.05;;
53843;SDS011;39744;53.314;5.710;2023-08-06T03:11:07;53.25;;;21.05;;
53843;SDS011;39744;53.314;5.710;2023-08-06T03:13:33;35.15;;;19.25;;
53843;SDS011;39744;53.314;5.710;2023-08-06T03:15:59;30.10;;;17.00;;
53843;SDS011;39744;53.314;5.710;2023-08-06T03:18:25;34.25;;;18.10;;
53843;SDS011;39744;53.314;5.710;2023-08-06T03:20:51;25.50;;;16.55;;
53843;SDS011;39744;53.314;5.710;2023-08-06T03:23:18;37.50;;;18.73;;
53843;SDS011;39744;53.314;5.710;2023-08-06T03:25:44;37.83;;;17.52;;
53843;SDS011;39744;53.314;5.710;2023-08-06T03:28:10;34.65;;;17.38;;
53843;SDS011;39744;53.314;5.710;2023-08-06T03:30:36;33.92;;;17.38;;
53843;SDS011;39744;53.314;5.710;2023-08-06T03:33:03;38.60;;;19.05;;
53843;SDS011;39744;53.314;5.710;2023-08-06T03:35:29;76.68;;;25.40;;
53843;SDS011;39744;53.314;5.710;2023-08-06T03:37:55;28.85;;;16.98;;
53843;SDS011;39744;53.314;5.710;2023-08-06T03:40:21;57.85;;;23.27;;
53843;SDS011;39744;53.314;5.710;2023-08-06T03:42:47;31.88;;;17.52;;
53843;SDS011;39744;53.314;5.710;2023-08-06T03:45:13;45.83;;;20.38;;
53843;SDS011;39744;53.314;5.710;2023-08-06T03:47:39;60.35;;;22.98;;
53843;SDS011;39744;53.314;5.710;2023-08-06T03:50:06;41.50;;;19.17;;
53843;SDS011;39744;53.314;5.710;2023-08-06T03:52:32;46.55;;;20.55;;
53843;SDS011;39744;53.314;5.710;2023-08-06T03:54:58;38.97;;;19.23;;
53843;SDS011;39744;53.314;5.710;2023-08-06T03:57:24;47.53;;;20.05;;
53843;SDS011;39744;53.314;5.710;2023-08-06T03:59:50;41.72;;;20.02;;
53843;SDS011;39744;53.314;5.710;2023-08-06T04:02:16;61.95;;;25.58;;
53843;SDS011;39744;53.314;5.710;2023-08-06T04:04:42;49.85;;;22.65;;
53843;SDS011;39744;53.314;5.710;2023-08-06T04:07:08;66.43;;;25.63;;
53843;SDS011;39744;53.314;5.710;2023-08-06T04:09:35;60.35;;;21.42;;
53843;SDS011;39744;53.314;5.710;2023-08-06T04:12:16;45.22;;;19.90;;
53843;SDS011;39744;53.314;5.710;2023-08-06T04:14:42;38.45;;;19.15;;
53843;SDS011;39744;53.314;5.710;2023-08-06T04:17:08;71.93;;;25.75;;
53843;SDS011;39744;53.314;5.710;2023-08-06T04:19:34;45.08;;;21.55;;
53843;SDS011;39744;53.314;5.710;2023-08-06T04:22:00;34.55;;;19.73;;
53843;SDS011;39744;53.314;5.710;2023-08-06T04:24:26;55.03;;;22.75;;
53843;SDS011;39744;53.314;5.710;2023-08-06T04:26:52;67.68;;;25.83;;
53843;SDS011;39744;53.314;5.710;2023-08-06T04:29:19;61.22;;;23.90;;
53843;SDS011;39744;53.314;5.710;2023-08-06T04:31:45;46.83;;;20.40;;
53843;SDS011;39744;53.314;5.710;2023-08-06T04:34:11;60.83;;;21.85;;
53843;SDS011;39744;53.314;5.710;2023-08-06T04:36:37;29.25;;;17.60;;
53843;SDS011;39744;53.314;5.710;2023-08-06T04:39:04;32.83;;;18.38;;
53843;SDS011;39744;53.314;5.710;2023-08-06T04:41:30;38.08;;;19.77;;
53843;SDS011;39744;53.314;5.710;2023-08-06T04:43:56;31.75;;;16.55;;
53843;SDS011;39744;53.314;5.710;2023-08-06T04:46:22;42.53;;;20.92;;
53843;SDS011;39744;53.314;5.710;2023-08-06T04:48:48;41.42;;;19.38;;
53843;SDS011;39744;53.314;5.710;2023-08-06T04:51:15;37.97;;;18.15;;
53843;SDS011;39744;53.314;5.710;2023-08-06T04:53:41;60.08;;;22.85;;
53843;SDS011;39744;53.314;5.710;2023-08-06T04:56:07;56.67;;;23.77;;
53843;SDS011;39744;53.314;5.710;2023-08-06T04:58:33;54.35;;;22.88;;
53843;SDS011;39744;53.314;5.710;2023-08-06T05:00:59;71.10;;;25.60;;
53843;SDS011;39744;53.314;5.710;2023-08-06T05:03:25;40.80;;;20.63;;
53843;SDS011;39744;53.314;5.710;2023-08-06T05:05:51;38.95;;;19.70;;
53843;SDS011;39744;53.314;5.710;2023-08-06T05:08:18;52.20;;;23.83;;
53843;SDS011;39744;53.314;5.710;2023-08-06T05:10:47;37.33;;;21.05;;
53843;SDS011;39744;53.314;5.710;2023-08-06T05:13:13;52.67;;;23.35;;
53843;SDS011;39744;53.314;5.710;2023-08-06T05:15:39;46.20;;;20.88;;
53843;SDS011;39744;53.314;5.710;2023-08-06T05:18:07;28.73;;;18.23;;
53843;SDS011;39744;53.314;5.710;2023-08-06T05:20:35;33.78;;;18.65;;
53843;SDS011;39744;53.314;5.710;2023-08-06T05:23:02;41.55;;;19.17;;
53843;SDS011;39744;53.314;5.710;2023-08-06T05:25:29;34.22;;;17.70;;
53843;SDS011;39744;53.314;5.710;2023-08-06T05:27:55;36.13;;;19.73;;
53843;SDS011;39744;53.314;5.710;2023-08-06T05:30:21;38.13;;;19.45;;
53843;SDS011;39744;53.314;5.710;2023-08-06T05:32:47;37.92;;;19.25;;
53843;SDS011;39744;53.314;5.710;2023-08-06T05:35:13;35.90;;;19.00;;
53843;SDS011;39744;53.314;5.710;2023-08-06T05:37:39;36.13;;;19.45;;
53843;SDS011;39744;53.314;5.710;2023-08-06T05:40:05;31.65;;;18.55;;
53843;SDS011;39744;53.314;5.710;2023-08-06T05:42:31;35.08;;;18.02;;
53843;SDS011;39744;53.314;5.710;2023-08-06T05:44:57;37.78;;;18.98;;
53843;SDS011;39744;53.314;5.710;2023-08-06T05:47:24;36.05;;;18.48;;
53843;SDS011;39744;53.314;5.710;2023-08-06T05:49:50;29.13;;;16.27;;
53843;SDS011;39744;53.314;5.710;2023-08-06T05:52:16;27.40;;;16.83;;
53843;SDS011;39744;53.314;5.710;2023-08-06T05:54:42;29.50;;;17.52;;
53843;SDS011;39744;53.314;5.710;2023-08-06T05:57:08;22.00;;;15.32;;
53843;SDS011;39744;53.314;5.710;2023-08-06T05:59:34;24.58;;;16.42;;
53843;SDS011;39744;53.314;5.710;2023-08-06T06:02:00;25.77;;;16.30;;
53843;SDS011;39744;53.314;5.710;2023-08-06T06:04:27;25.30;;;14.80;;
53843;SDS011;39744;53.314;5.710;2023-08-06T06:06:54;32.00;;;16.25;;
53843;SDS011;39744;53.314;5.710;2023-08-06T06:09:20;32.17;;;17.50;;
53843;SDS011;39744;53.314;5.710;2023-08-06T06:11:46;32.65;;;17.73;;
53843;SDS011;39744;53.314;5.710;2023-08-06T06:14:14;24.27;;;13.55;;
53843;SDS011;39744;53.314;5.710;2023-08-06T06:16:40;23.38;;;13.57;;
53843;SDS011;39744;53.314;5.710;2023-08-06T06:19:06;24.83;;;14.35;;
53843;SDS011;39744;53.314;5.710;2023-08-06T06:21:32;21.98;;;14.27;;
53843;SDS011;39744;53.314;5.710;2023-08-06T06:23:58;26.30;;;14.90;;
53843;SDS011;39744;53.314;5.710;2023-08-06T06:26:24;32.42;;;16.20;;
53843;SDS011;39744;53.314;5.710;2023-08-06T06:28:51;16.83;;;11.52;;
53843;SDS011;39744;53.314;5.710;2023-08-06T06:31:17;22.05;;;14.00;;
53843;SDS011;39744;53.314;5.710;2023-08-06T06:33:43;19.45;;;13.00;;
53843;SDS011;39744;53.314;5.710;2023-08-06T06:36:09;18.30;;;12.40;;
53843;SDS011;39744;53.314;5.710;2023-08-06T06:38:36;18.65;;;12.88;;
53843;SDS011;39744;53.314;5.710;2023-08-06T06:41:02;16.80;;;11.02;;
53843;SDS011;39744;53.314;5.710;2023-08-06T06:43:28;27.27;;;14.98;;
53843;SDS011;39744;53.314;5.710;2023-08-06T06:46:00;25.05;;;14.93;;
53843;SDS011;39744;53.314;5.710;2023-08-06T06:48:27;18.85;;;11.50;;
53843;SDS011;39744;53.314;5.710;2023-08-06T06:50:53;19.15;;;11.60;;
53843;SDS011;39744;53.314;5.710;2023-08-06T06:53:19;15.30;;;9.93;;
53843;SDS011;39744;53.314;5.710;2023-08-06T06:55:45;17.05;;;11.50;;
53843;SDS011;39744;53.314;5.710;2023-08-06T06:58:14;16.60;;;11.15;;
53843;SDS011;39744;53.314;5.710;2023-08-06T07:00:41;20.15;;;12.68;;
53843;SDS011;39744;53.314;5.710;2023-08-06T07:03:07;13.73;;;9.10;;
53843;SDS011;39744;53.314;5.710;2023-08-06T07:05:33;19.50;;;11.60;;
53843;SDS011;39744;53.314;5.710;2023-08-06T07:07:59;16.48;;;10.25;;
53843;SDS011;39744;53.314;5.710;2023-08-06T07:10:26;16.48;;;10.10;;
53843;SDS011;39744;53.314;5.710;2023-08-06T07:12:52;17.45;;;10.20;;
53843;SDS011;39744;53.314;5.710;2023-08-06T07:15:18;17.23;;;10.45;;
53843;SDS011;39744;53.314;5.710;2023-08-06T07:17:44;15.38;;;11.00;;
53843;SDS011;39744;53.314;5.710;2023-08-06T07:20:10;19.58;;;12.10;;
53843;SDS011;39744;53.314;5.710;2023-08-06T07:22:36;15.63;;;11.30;;
53843;SDS011;39744;53.314;5.710;2023-08-06T07:25:03;16.05;;;9.68;;
53843;SDS011;39744;53.314;5.710;2023-08-06T07:27:29;14.32;;;8.27;;
53843;SDS011;39744;53.314;5.710;2023-08-06T07:29:55;15.65;;;10.10;;
53843;SDS011;39744;53.314;5.710;2023-08-06T07:32:21;17.05;;;10.02;;
53843;SDS011;39744;53.314;5.710;2023-08-06T07:34:47;14.95;;;9.30;;
53843;SDS011;39744;53.314;5.710;2023-08-06T07:37:13;13.75;;;9.05;;
53843;SDS011;39744;53.314;5.710;2023-08-06T07:39:39;12.23;;;8.75;;
53843;SDS011;39744;53.314;5.710;2023-08-06T07:42:07;13.13;;;8.68;;
53843;SDS011;39744;53.314;5.710;2023-08-06T07:44:33;12.38;;;8.32;;
53843;SDS011;39744;53.314;5.710;2023-08-06T07:46:59;13.20;;;7.70;;
53843;SDS011;39744;53.314;5.710;2023-08-06T07:49:26;9.88;;;6.80;;
53843;SDS011;39744;53.314;5.710;2023-08-06T07:51:52;11.52;;;7.30;;
53843;SDS011;39744;53.314;5.710;2023-08-06T07:54:18;11.75;;;6.97;;
53843;SDS011;39744;53.314;5.710;2023-08-06T07:56:44;10.10;;;6.10;;
53843;SDS011;39744;53.314;5.710;2023-08-06T07:59:10;6.60;;;4.95;;
53843;SDS011;39744;53.314;5.710;2023-08-06T08:01:36;11.70;;;6.20;;
53843;SDS011;39744;53.314;5.710;2023-08-06T08:04:03;8.50;;;4.45;;
53843;SDS011;39744;53.314;5.710;2023-08-06T08:06:30;10.68;;;5.15;;
53843;SDS011;39744;53.314;5.710;2023-08-06T08:08:56;9.20;;;6.10;;
53843;SDS011;39744;53.314;5.710;2023-08-06T08:11:22;6.05;;;4.78;;
53843;SDS011;39744;53.314;5.710;2023-08-06T08:13:48;10.90;;;6.10;;
53843;SDS011;39744;53.314;5.710;2023-08-06T08:16:14;8.23;;;5.03;;
53843;SDS011;39744;53.314;5.710;2023-08-06T08:18:40;7.00;;;4.40;;
53843;SDS011;39744;53.314;5.710;2023-08-06T08:21:06;7.50;;;4.63;;
53843;SDS011;39744;53.314;5.710;2023-08-06T08:23:32;6.45;;;4.45;;
53843;SDS011;39744;53.314;5.710;2023-08-06T08:25:58;7.40;;;4.85;;
53843;SDS011;39744;53.314;5.710;2023-08-06T08:28:27;7.07;;;5.20;;
53843;SDS011;39744;53.314;5.710;2023-08-06T08:30:53;8.15;;;4.93;;
53843;SDS011;39744;53.314;5.710;2023-08-06T08:33:21;8.80;;;5.70;;
53843;SDS011;39744;53.314;5.710;2023-08-06T08:35:48;8.75;;;5.57;;
53843;SDS011;39744;53.314;5.710;2023-08-06T08:38:14;9.38;;;4.90;;
53843;SDS011;39744;53.314;5.710;2023-08-06T08:40:42;8.27;;;4.93;;
53843;SDS011;39744;53.314;5.710;2023-08-06T08:43:08;8.95;;;5.10;;
53843;SDS011;39744;53.314;5.710;2023-08-06T08:45:35;6.85;;;4.05;;
53843;SDS011;39744;53.314;5.710;2023-08-06T08:48:05;9.65;;;5.20;;
53843;SDS011;39744;53.314;5.710;2023-08-06T08:50:31;9.25;;;4.85;;
53843;SDS011;39744;53.314;5.710;2023-08-06T08:52:58;8.75;;;4.07;;
53843;SDS011;39744;53.314;5.710;2023-08-06T08:55:24;11.75;;;3.70;;
53843;SDS011;39744;53.314;5.710;2023-08-06T08:57:50;9.98;;;3.33;;
53843;SDS011;39744;53.314;5.710;2023-08-06T09:00:16;10.32;;;3.60;;
53843;SDS011;39744;53.314;5.710;2023-08-06T09:02:42;14.43;;;3.05;;
53843;SDS011;39744;53.314;5.710;2023-08-06T09:05:10;10.35;;;3.80;;
53843;SDS011;39744;53.314;5.710;2023-08-06T09:07:45;9.52;;;3.65;;
53843;SDS011;39744;53.314;5.710;2023-08-06T09:10:12;9.80;;;3.92;;
53843;SDS011;39744;53.314;5.710;2023-08-06T09:12:40;9.48;;;3.33;;
53843;SDS011;39744;53.314;5.710;2023-08-06T09:15:07;7.45;;;3.20;;
53843;SDS011;39744;53.314;5.710;2023-08-06T09:17:33;7.00;;;3.17;;
53843;SDS011;39744;53.314;5.710;2023-08-06T09:20:08;8.70;;;3.67;;
53843;SDS011;39744;53.314;5.710;2023-08-06T09:22:34;6.70;;;3.20;;
53843;SDS011;39744;53.314;5.710;2023-08-06T09:25:00;6.22;;;3.22;;
53843;SDS011;39744;53.314;5.710;2023-08-06T09:27:28;6.38;;;3.20;;
53843;SDS011;39744;53.314;5.710;2023-08-06T09:29:54;7.32;;;3.42;;
53843;SDS011;39744;53.314;5.710;2023-08-06T09:32:20;7.80;;;3.67;;
53843;SDS011;39744;53.314;5.710;2023-08-06T09:34:46;6.55;;;3.63;;
53843;SDS011;39744;53.314;5.710;2023-08-06T09:37:12;8.65;;;3.58;;
53843;SDS011;39744;53.314;5.710;2023-08-06T09:39:39;9.15;;;3.63;;
53843;SDS011;39744;53.314;5.710;2023-08-06T09:42:06;6.72;;;3.80;;
53843;SDS011;39744;53.314;5.710;2023-08-06T09:44:33;5.55;;;3.40;;
53843;SDS011;39744;53.314;5.710;2023-08-06T09:47:01;6.45;;;3.10;;
53843;SDS011;39744;53.314;5.710;2023-08-06T09:49:28;9.35;;;4.05;;
53843;SDS011;39744;53.314;5.710;2023-08-06T09:52:09;10.80;;;3.67;;
53843;SDS011;39744;53.314;5.710;2023-08-06T09:54:36;8.07;;;3.58;;
53843;SDS011;39744;53.314;5.710;2023-08-06T09:57:03;8.13;;;3.60;;
53843;SDS011;39744;53.314;5.710;2023-08-06T09:59:29;6.07;;;3.50;;
53843;SDS011;39744;53.314;5.710;2023-08-06T10:01:56;7.93;;;2.90;;
53843;SDS011;39744;53.314;5.710;2023-08-06T10:04:22;7.63;;;3.03;;
53843;SDS011;39744;53.314;5.710;2023-08-06T10:06:49;8.98;;;4.03;;
53843;SDS011;39744;53.314;5.710;2023-08-06T10:09:15;7.35;;;2.83;;
53843;SDS011;39744;53.314;5.710;2023-08-06T10:11:42;6.15;;;2.97;;
53843;SDS011;39744;53.314;5.710;2023-08-06T10:14:14;8.35;;;3.20;;
53843;SDS011;39744;53.314;5.710;2023-08-06T10:16:41;5.07;;;2.70;;
53843;SDS011;39744;53.314;5.710;2023-08-06T10:19:09;4.85;;;2.65;;
53843;SDS011;39744;53.314;5.710;2023-08-06T10:21:35;6.65;;;3.00;;
53843;SDS011;39744;53.314;5.710;2023-08-06T10:24:01;8.27;;;2.95;;
53843;SDS011;39744;53.314;5.710;2023-08-06T10:26:29;5.38;;;3.00;;
53843;SDS011;39744;53.314;5.710;2023-08-06T10:28:55;7.13;;;3.63;;
53843;SDS011;39744;53.314;5.710;2023-08-06T10:34:06;5.80;;;2.90;;
53843;SDS011;39744;53.314;5.710;2023-08-06T10:36:33;5.53;;;2.97;;
53843;SDS011;39744;53.314;5.710;2023-08-06T10:38:59;7.20;;;2.70;;
53843;SDS011;39744;53.314;5.710;2023-08-06T10:41:28;6.38;;;2.70;;
53843;SDS011;39744;53.314;5.710;2023-08-06T10:44:05;4.40;;;2.60;;
53843;SDS011;39744;53.314;5.710;2023-08-06T10:46:32;5.80;;;2.85;;
53843;SDS011;39744;53.314;5.710;2023-08-06T10:48:58;6.45;;;3.33;;
53843;SDS011;39744;53.314;5.710;2023-08-06T10:51:24;5.60;;;2.70;;
53843;SDS011;39744;53.314;5.710;2023-08-06T10:53:51;4.45;;;2.80;;
53843;SDS011;39744;53.314;5.710;2023-08-06T10:56:21;5.10;;;2.72;;
53843;SDS011;39744;53.314;5.710;2023-08-06T10:58:48;6.70;;;3.25;;
53843;SDS011;39744;53.314;5.710;2023-08-06T11:01:14;6.53;;;2.72;;
53843;SDS011;39744;53.314;5.710;2023-08-06T11:03:41;5.70;;;3.05;;
53843;SDS011;39744;53.314;5.710;2023-08-06T11:06:07;8.00;;;3.28;;
53843;SDS011;39744;53.314;5.710;2023-08-06T11:08:34;5.18;;;3.40;;
53843;SDS011;39744;53.314;5.710;2023-08-06T11:11:07;7.03;;;3.47;;
53843;SDS011;39744;53.314;5.710;2023-08-06T11:13:34;5.43;;;3.17;;
53843;SDS011;39744;53.314;5.710;2023-08-06T11:16:00;6.13;;;3.45;;
53843;SDS011;39744;53.314;5.710;2023-08-06T11:18:26;6.78;;;3.75;;
53843;SDS011;39744;53.314;5.710;2023-08-06T11:20:52;5.22;;;3.25;;
53843;SDS011;39744;53.314;5.710;2023-08-06T11:23:18;6.20;;;3.60;;
53843;SDS011;39744;53.314;5.710;2023-08-06T11:25:44;6.15;;;3.90;;
53843;SDS011;39744;53.314;5.710;2023-08-06T11:28:11;6.40;;;2.97;;
53843;SDS011;39744;53.314;5.710;2023-08-06T11:30:37;5.72;;;3.42;;
53843;SDS011;39744;53.314;5.710;2023-08-06T11:33:03;8.75;;;3.58;;
53843;SDS011;39744;53.314;5.710;2023-08-06T11:35:35;8.10;;;3.58;;
53843;SDS011;39744;53.314;5.710;2023-08-06T11:38:01;6.18;;;3.65;;
53843;SDS011;39744;53.314;5.710;2023-08-06T11:40:27;6.88;;;3.70;;
53843;SDS011;39744;53.314;5.710;2023-08-06T11:42:53;5.47;;;3.60;;
53843;SDS011;39744;53.314;5.710;2023-08-06T11:45:24;7.45;;;3.40;;
53843;SDS011;39744;53.314;5.710;2023-08-06T11:47:50;6.38;;;3.40;;
53843;SDS011;39744;53.314;5.710;2023-08-06T11:50:23;5.13;;;3.05;;
53843;SDS011;39744;53.314;5.710;2023-08-06T11:52:52;7.97;;;3.05;;
53843;SDS011;39744;53.314;5.710;2023-08-06T11:55:22;7.22;;;3.40;;
53843;SDS011;39744;53.314;5.710;2023-08-06T11:57:48;8.20;;;3.60;;
53843;SDS011;39744;53.314;5.710;2023-08-06T12:00:14;5.68;;;3.28;;
53843;SDS011;39744;53.314;5.710;2023-08-06T12:02:43;6.75;;;3.20;;
53843;SDS011;39744;53.314;5.710;2023-08-06T12:05:13;6.40;;;3.33;;
53843;SDS011;39744;53.314;5.710;2023-08-06T12:07:43;7.10;;;3.47;;
53843;SDS011;39744;53.314;5.710;2023-08-06T12:10:09;4.75;;;2.78;;
53843;SDS011;39744;53.314;5.710;2023-08-06T12:12:36;5.30;;;3.25;;
53843;SDS011;39744;53.314;5.710;2023-08-06T12:15:03;6.05;;;3.13;;
53843;SDS011;39744;53.314;5.710;2023-08-06T12:17:31;5.75;;;3.20;;
53843;SDS011;39744;53.314;5.710;2023-08-06T12:19:57;5.32;;;2.70;;
53843;SDS011;39744;53.314;5.710;2023-08-06T12:22:23;5.47;;;2.80;;
53843;SDS011;39744;53.314;5.710;2023-08-06T12:24:49;6.30;;;2.90;;
53843;SDS011;39744;53.314;5.710;2023-08-06T12:27:15;4.05;;;2.80;;
53843;SDS011;39744;53.314;5.710;2023-08-06T12:29:42;4.35;;;2.95;;
53843;SDS011;39744;53.314;5.710;2023-08-06T12:32:09;5.95;;;3.10;;
53843;SDS011;39744;53.314;5.710;2023-08-06T12:34:35;6.05;;;2.85;;
53843;SDS011;39744;53.314;5.710;2023-08-06T12:37:02;5.40;;;2.88;;
53843;SDS011;39744;53.314;5.710;2023-08-06T12:39:28;5.40;;;2.90;;
53843;SDS011;39744;53.314;5.710;2023-08-06T12:41:59;4.25;;;2.30;;
53843;SDS011;39744;53.314;5.710;2023-08-06T12:44:25;6.38;;;2.60;;
53843;SDS011;39744;53.314;5.710;2023-08-06T12:46:52;5.45;;;2.63;;
53843;SDS011;39744;53.314;5.710;2023-08-06T12:49:18;3.75;;;2.50;;
53843;SDS011;39744;53.314;5.710;2023-08-06T12:51:46;7.85;;;2.80;;
53843;SDS011;39744;53.314;5.710;2023-08-06T12:54:12;3.50;;;2.05;;
53843;SDS011;39744;53.314;5.710;2023-08-06T12:56:38;4.63;;;2.38;;
53843;SDS011;39744;53.314;5.710;2023-08-06T12:59:04;4.95;;;2.65;;
53843;SDS011;39744;53.314;5.710;2023-08-06T13:01:30;3.28;;;2.00;;
53843;SDS011;39744;53.314;5.710;2023-08-06T13:03:57;4.25;;;2.03;;
53843;SDS011;39744;53.314;5.710;2023-08-06T13:06:23;5.07;;;2.33;;
53843;SDS011;39744;53.314;5.710;2023-08-06T13:08:49;4.00;;;2.33;;
53843;SDS011;39744;53.314;5.710;2023-08-06T13:11:15;3.47;;;2.20;;
53843;SDS011;39744;53.314;5.710;2023-08-06T13:13:42;3.75;;;2.00;;
53843;SDS011;39744;53.314;5.710;2023-08-06T13:16:08;6.75;;;2.30;;
53843;SDS011;39744;53.314;5.710;2023-08-06T13:18:34;4.50;;;2.25;;
53843;SDS011;39744;53.314;5.710;2023-08-06T13:21:00;4.43;;;2.50;;
53843;SDS011;39744;53.314;5.710;2023-08-06T13:23:26;4.55;;;2.17;;
53843;SDS011;39744;53.314;5.710;2023-08-06T13:25:53;7.80;;;2.33;;
53843;SDS011;39744;53.314;5.710;2023-08-06T13:28:19;6.43;;;2.33;;
53843;SDS011;39744;53.314;5.710;2023-08-06T13:30:45;3.85;;;2.50;;
53843;SDS011;39744;53.314;5.710;2023-08-06T13:33:11;6.35;;;2.55;;
53843;SDS011;39744;53.314;5.710;2023-08-06T13:35:38;3.63;;;1.98;;
53843;SDS011;39744;53.314;5.710;2023-08-06T13:38:04;5.93;;;2.25;;
53843;SDS011;39744;53.314;5.710;2023-08-06T13:40:33;3.72;;;2.35;;
53843;SDS011;39744;53.314;5.710;2023-08-06T13:42:59;5.25;;;2.30;;
53843;SDS011;39744;53.314;5.710;2023-08-06T13:45:25;8.40;;;2.58;;
53843;SDS011;39744;53.314;5.710;2023-08-06T13:47:51;8.35;;;2.53;;
53843;SDS011;39744;53.314;5.710;2023-08-06T13:50:18;6.78;;;2.53;;
53843;SDS011;39744;53.314;5.710;2023-08-06T13:52:44;6.18;;;2.47;;
53843;SDS011;39744;53.314;5.710;2023-08-06T13:55:10;5.70;;;2.33;;
53843;SDS011;39744;53.314;5.710;2023-08-06T13:57:37;5.78;;;2.50;;
53843;SDS011;39744;53.314;5.710;2023-08-06T14:00:03;5.45;;;2.35;;
53843;SDS011;39744;53.314;5.710;2023-08-06T14:02:30;8.98;;;3.28;;
53843;SDS011;39744;53.314;5.710;2023-08-06T14:04:56;8.52;;;3.00;;
53843;SDS011;39744;53.314;5.710;2023-08-06T14:07:23;7.40;;;2.70;;
53843;SDS011;39744;53.314;5.710;2023-08-06T14:09:49;5.47;;;2.30;;
53843;SDS011;39744;53.314;5.710;2023-08-06T14:12:15;7.20;;;2.83;;
53843;SDS011;39744;53.314;5.710;2023-08-06T14:14:41;9.18;;;2.50;;
53843;SDS011;39744;53.314;5.710;2023-08-06T14:17:08;5.97;;;2.65;;
53843;SDS011;39744;53.314;5.710;2023-08-06T14:19:34;8.00;;;2.65;;
53843;SDS011;39744;53.314;5.710;2023-08-06T14:22:00;7.13;;;2.95;;
53843;SDS011;39744;53.314;5.710;2023-08-06T14:24:26;9.18;;;2.95;;
53843;SDS011;39744;53.314;5.710;2023-08-06T14:26:52;8.30;;;2.97;;
53843;SDS011;39744;53.314;5.710;2023-08-06T14:29:19;9.27;;;2.80;;
53843;SDS011;39744;53.314;5.710;2023-08-06T14:31:45;7.35;;;2.53;;
53843;SDS011;39744;53.314;5.710;2023-08-06T14:34:11;6.65;;;2.90;;
53843;SDS011;39744;53.314;5.710;2023-08-06T14:36:37;8.60;;;3.13;;
53843;SDS011;39744;53.314;5.710;2023-08-06T14:39:03;4.80;;;2.67;;
53843;SDS011;39744;53.314;5.710;2023-08-06T14:41:29;8.18;;;3.40;;